Terminal Aerodrome Forecast
Issued by NWS Corpus Christi, TX

Home | Current Version | Previous Version | Text Only | Print | Product List | Glossary On
Versions: 1 2 3 4 5 6 7 8 9 10 11 12 13 14 15 16
130
FTUS44 KCRP 222330
TAFVCT
TAF
KVCT 222330Z 2300/2324 13010KT P6SM SCT050
     FM230300 VRB04KT P6SM SKC
     FM232000 08010KT P6SM FEW045=

USA.gov is the U.S. government's official web portal to all federal, state and local government web resources and services.